Time;durP1;ratioP1;P1;durP2;ratioP2;P2;SDS_P1;SDS_P2;PMS_P1;PMS_P2;Temp;Humidity;BMP_temperature;BMP_pressure;BME280_temperature;BME280_humidity;BME280_pressure;Samples;Min_cycle;Max_cycle;Signal;HPM_P1;HPM_P2
2023/06/15 00:02:11;;;;;;;9.65;4.28;;;;;;;;;;4936045;29;20027;-86
2023/06/15 00:04:40;;;;;;;8.32;3.85;;;;;;;;;;4929651;29;20113;-87
2023/06/15 00:07:05;;;;;;;8.18;3.95;;;;;;;;;;4957814;29;20039;-86
2023/06/15 00:09:31;;;;;;;10.73;3.80;;;;;;;;;;4909504;29;20402;-88
2023/06/15 00:11:56;;;;;;;6.43;3.47;;;;;;;;;;4932799;29;20031;-84
2023/06/15 00:14:22;;;;;;;8.57;3.63;;;;;;;;;;4959918;28;20019;-84
2023/06/15 00:16:52;;;;;;;8.52;3.25;;;;;;;;;;4968532;29;20035;-86
2023/06/15 00:19:21;;;;;;;9.20;4.00;;;;;;;;;;4942923;29;20027;-85
2023/06/15 00:21:48;;;;;;;19.08;5.13;;;;;;;;;;4929384;29;20039;-84
2023/06/15 00:24:14;;;;;;;12.40;4.47;;;;;;;;;;4931931;28;20027;-87
2023/06/15 00:26:39;;;;;;;9.30;3.88;;;;;;;;;;4931120;29;20054;-87
2023/06/15 00:29:05;;;;;;;7.38;4.43;;;;;;;;;;4932059;29;20544;-88
2023/06/15 00:31:31;;;;;;;9.98;3.50;;;;;;;;;;4940710;29;20111;-87
2023/06/15 00:33:57;;;;;;;7.40;3.72;;;;;;;;;;4952706;29;20048;-87
2023/06/15 00:36:22;;;;;;;7.55;3.92;;;;;;;;;;4926545;29;20500;-87
2023/06/15 00:38:48;;;;;;;9.23;4.13;;;;;;;;;;4929526;29;20050;-87
2023/06/15 00:41:13;;;;;;;10.70;4.00;;;;;;;;;;4932124;29;20089;-87
2023/06/15 00:43:40;;;;;;;14.27;4.20;;;;;;;;;;4922603;29;20086;-86
2023/06/15 00:46:05;;;;;;;8.73;4.65;;;;;;;;;;4908153;29;20492;-88
2023/06/15 00:48:31;;;;;;;8.20;3.90;;;;;;;;;;4931843;29;20028;-87
2023/06/15 00:50:57;;;;;;;7.22;3.60;;;;;;;;;;4930689;29;20435;-87
2023/06/15 00:53:23;;;;;;;7.15;3.95;;;;;;;;;;4893453;29;20024;-86
2023/06/15 00:55:49;;;;;;;5.45;3.30;;;;;;;;;;4919025;29;20031;-85
2023/06/15 00:58:15;;;;;;;7.22;3.40;;;;;;;;;;4924838;29;20038;-87
2023/06/15 01:00:41;;;;;;;8.50;3.60;;;;;;;;;;4929707;29;20043;-86
2023/06/15 01:03:06;;;;;;;9.75;3.20;;;;;;;;;;4948381;29;20039;-87
2023/06/15 01:05:34;;;;;;;6.25;3.65;;;;;;;;;;4939924;29;20182;-87
2023/06/15 01:08:04;;;;;;;5.70;3.28;;;;;;;;;;4922698;29;20019;-87
2023/06/15 01:10:31;;;;;;;5.25;3.10;;;;;;;;;;4930915;29;20098;-86
2023/06/15 01:12:57;;;;;;;10.20;3.47;;;;;;;;;;4929955;29;20027;-88
2023/06/15 01:15:24;;;;;;;7.07;3.78;;;;;;;;;;4937947;29;20054;-87
2023/06/15 01:17:53;;;;;;;9.80;4.05;;;;;;;;;;4926689;29;20477;-87
2023/06/15 01:20:24;;;;;;;7.10;3.75;;;;;;;;;;4916533;29;20105;-87
2023/06/15 01:22:55;;;;;;;9.02;3.53;;;;;;;;;;4928993;29;20119;-86
2023/06/15 01:25:35;;;;;;;7.78;3.05;;;;;;;;;;4924451;29;20036;-87
2023/06/15 01:28:02;;;;;;;5.40;3.03;;;;;;;;;;4922448;29;20030;-87
2023/06/15 01:30:29;;;;;;;6.05;3.10;;;;;;;;;;4915381;29;20028;-88
2023/06/15 01:32:55;;;;;;;7.72;3.38;;;;;;;;;;4929797;29;20031;-85
2023/06/15 01:35:20;;;;;;;5.03;3.15;;;;;;;;;;4926445;29;20035;-85
2023/06/15 01:37:46;;;;;;;5.40;3.38;;;;;;;;;;4938061;29;20090;-85
2023/06/15 01:40:12;;;;;;;6.72;3.30;;;;;;;;;;4915915;29;20031;-87
2023/06/15 01:42:39;;;;;;;7.07;3.38;;;;;;;;;;4938378;29;20043;-85
2023/06/15 01:45:05;;;;;;;6.45;3.50;;;;;;;;;;4937439;29;20073;-87
2023/06/15 01:47:31;;;;;;;5.40;3.22;;;;;;;;;;4936070;29;20219;-85
2023/06/15 01:49:58;;;;;;;5.60;3.30;;;;;;;;;;4911865;29;20036;-89
2023/06/15 01:52:23;;;;;;;7.78;3.35;;;;;;;;;;4942373;29;20038;-87
2023/06/15 01:54:49;;;;;;;5.63;3.08;;;;;;;;;;4946004;29;20020;-88
2023/06/15 01:57:18;;;;;;;4.97;2.88;;;;;;;;;;4902932;29;20052;-87
2023/06/15 01:59:43;;;;;;;8.25;3.38;;;;;;;;;;4956315;29;20476;-87
2023/06/15 02:02:09;;;;;;;6.45;3.30;;;;;;;;;;4924347;29;20050;-84
2023/06/15 02:04:35;;;;;;;6.85;3.22;;;;;;;;;;4914803;29;20031;-86
2023/06/15 02:07:02;;;;;;;6.38;3.20;;;;;;;;;;4960264;29;20031;-85
2023/06/15 02:09:28;;;;;;;9.43;3.38;;;;;;;;;;4958442;29;20039;-86
2023/06/15 02:11:53;;;;;;;6.97;3.40;;;;;;;;;;4924487;29;20067;-86
2023/06/15 02:14:23;;;;;;;6.18;3.42;;;;;;;;;;4934343;29;20023;-85
2023/06/15 02:16:49;;;;;;;;;;;;;;;;;;4923055;29;20036;-84
2023/06/15 02:19:21;;;;;;;6.13;3.35;;;;;;;;;;4923423;29;19918;-85
2023/06/15 02:21:48;;;;;;;6.10;3.30;;;;;;;;;;4941986;29;20031;-83
2023/06/15 02:24:15;;;;;;;6.50;3.30;;;;;;;;;;4927337;29;20042;-83
2023/06/15 02:26:41;;;;;;;7.32;3.78;;;;;;;;;;4922846;29;20071;-82
2023/06/15 02:29:07;;;;;;;5.32;3.30;;;;;;;;;;4936962;29;20047;-82
2023/06/15 02:31:33;;;;;;;6.60;3.40;;;;;;;;;;4943936;29;20075;-85
2023/06/15 02:33:58;;;;;;;6.88;3.58;;;;;;;;;;4936904;29;20031;-86
2023/06/15 02:36:24;;;;;;;5.72;3.53;;;;;;;;;;4919439;29;20043;-86
2023/06/15 02:42:35;;;;;;;4.80;3.03;;;;;;;;;;4857535;29;20045;-88
2023/06/15 02:45:06;;;;;;;12.07;3.70;;;;;;;;;;4843239;29;20415;-88
2023/06/15 02:47:36;;;;;;;7.18;3.60;;;;;;;;;;4917811;29;20035;-87
2023/06/15 02:50:12;;;;;;;8.07;3.33;;;;;;;;;;4918119;29;20039;-87
2023/06/15 02:53:27;;;;;;;6.40;3.40;;;;;;;;;;4916961;29;20065;-86
2023/06/15 02:55:57;;;;;;;9.48;3.70;;;;;;;;;;4892525;29;20038;-87
2023/06/15 02:59:01;;;;;;;5.60;3.67;;;;;;;;;;4937838;29;20035;-85
2023/06/15 03:02:09;;;;;;;6.15;3.30;;;;;;;;;;4902133;29;20031;-84
2023/06/15 03:04:44;;;;;;;7.05;3.45;;;;;;;;;;4946505;28;20035;-84
2023/06/15 03:07:16;;;;;;;7.93;3.60;;;;;;;;;;4922980;29;20136;-84
2023/06/15 03:10:08;;;;;;;8.73;3.72;;;;;;;;;;4940226;29;20043;-85
2023/06/15 03:12:37;;;;;;;9.30;3.75;;;;;;;;;;4929389;29;20031;-88
2023/06/15 03:15:03;;;;;;;6.43;3.47;;;;;;;;;;4935706;29;20019;-87
2023/06/15 03:17:32;;;;;;;9.48;3.60;;;;;;;;;;4927872;29;20091;-85
2023/06/15 03:19:58;;;;;;;8.77;2.95;;;;;;;;;;4939695;29;20043;-87
2023/06/15 03:22:25;;;;;;;6.50;3.53;;;;;;;;;;4940907;29;20031;-87
2023/06/15 03:24:54;;;;;;;7.50;3.05;;;;;;;;;;4933756;29;20086;-86
2023/06/15 03:27:20;;;;;;;6.38;3.58;;;;;;;;;;4926666;29;20032;-90
2023/06/15 03:29:49;;;;;;;7.00;3.85;;;;;;;;;;4944944;29;20107;-86
2023/06/15 03:32:15;;;;;;;8.25;3.78;;;;;;;;;;4929463;29;20027;-85
2023/06/15 03:34:41;;;;;;;6.18;3.65;;;;;;;;;;4943109;29;20059;-87
2023/06/15 03:37:06;;;;;;;8.82;4.20;;;;;;;;;;4915579;29;20044;-87
2023/06/15 03:39:33;;;;;;;6.75;3.50;;;;;;;;;;4924324;29;20038;-85
2023/06/15 03:41:59;;;;;;;9.20;3.50;;;;;;;;;;4927269;29;20028;-87
2023/06/15 03:44:25;;;;;;;6.07;3.30;;;;;;;;;;4936329;29;20031;-86
2023/06/15 03:46:50;;;;;;;6.65;3.13;;;;;;;;;;4917733;29;20078;-87
2023/06/15 03:49:16;;;;;;;5.47;3.47;;;;;;;;;;4933735;29;20102;-85
2023/06/15 03:51:42;;;;;;;6.57;3.40;;;;;;;;;;4941968;29;20082;-85
2023/06/15 03:54:07;;;;;;;9.15;3.95;;;;;;;;;;4927953;28;20075;-87
2023/06/15 03:56:33;;;;;;;5.18;3.42;;;;;;;;;;4913071;29;20165;-87
2023/06/15 03:58:59;;;;;;;6.70;3.30;;;;;;;;;;4926815;29;20031;-87
2023/06/15 04:01:24;;;;;;;7.00;3.78;;;;;;;;;;4945270;29;20067;-87
2023/06/15 04:03:51;;;;;;;6.63;3.65;;;;;;;;;;4908067;29;20042;-87
2023/06/15 04:06:16;;;;;;;11.15;3.90;;;;;;;;;;4928963;28;20098;-87
2023/06/15 04:08:42;;;;;;;9.63;4.00;;;;;;;;;;4936402;29;20035;-87
2023/06/15 04:11:09;;;;;;;7.38;4.15;;;;;;;;;;4920879;29;20035;-85
2023/06/15 04:13:35;;;;;;;6.10;3.28;;;;;;;;;;4895077;29;20028;-87
2023/06/15 04:16:01;;;;;;;10.25;4.28;;;;;;;;;;4923191;29;20094;-88
2023/06/15 04:18:27;;;;;;;7.45;3.90;;;;;;;;;;4933275;29;20433;-87
2023/06/15 04:20:53;;;;;;;12.32;3.78;;;;;;;;;;4899771;29;20058;-87
2023/06/15 04:23:20;;;;;;;11.00;4.15;;;;;;;;;;4925872;29;20122;-87
2023/06/15 04:25:45;;;;;;;8.75;4.10;;;;;;;;;;4935927;29;20123;-87
2023/06/15 04:28:13;;;;;;;7.03;4.30;;;;;;;;;;4920490;29;20024;-87
2023/06/15 04:30:40;;;;;;;9.20;4.00;;;;;;;;;;4913269;29;20038;-86
2023/06/15 04:33:12;;;;;;;7.63;3.83;;;;;;;;;;4897167;29;20062;-86
2023/06/15 04:35:45;;;;;;;9.88;4.57;;;;;;;;;;4921089;29;20091;-85
2023/06/15 04:38:12;;;;;;;10.68;4.05;;;;;;;;;;4925414;29;20397;-86
2023/06/15 04:40:39;;;;;;;11.02;4.50;;;;;;;;;;4916576;29;20038;-86
2023/06/15 04:43:04;;;;;;;9.18;4.78;;;;;;;;;;4903312;29;20035;-85
2023/06/15 04:45:31;;;;;;;9.73;4.10;;;;;;;;;;4939153;23;20127;-81
2023/06/15 04:47:57;;;;;;;7.93;4.00;;;;;;;;;;4917955;29;20115;-79
2023/06/15 04:50:23;;;;;;;10.77;4.03;;;;;;;;;;4923672;29;20051;-80
2023/06/15 04:52:49;;;;;;;8.23;4.47;;;;;;;;;;4911040;29;20048;-80
2023/06/15 04:55:14;;;;;;;10.30;4.20;;;;;;;;;;4929893;29;20039;-80
2023/06/15 04:57:40;;;;;;;10.75;5.22;;;;;;;;;;4903459;29;20108;-80
2023/06/15 05:00:08;;;;;;;15.43;7.63;;;;;;;;;;4915692;29;20036;-80
2023/06/15 05:02:38;;;;;;;13.00;5.72;;;;;;;;;;4910137;29;20035;-80
2023/06/15 05:05:04;;;;;;;9.85;4.30;;;;;;;;;;4892851;29;20071;-79
2023/06/15 05:07:29;;;;;;;10.73;4.28;;;;;;;;;;4916558;29;20512;-78
2023/06/15 05:09:55;;;;;;;6.82;3.70;;;;;;;;;;4872591;29;20389;-79
2023/06/15 05:12:23;;;;;;;8.55;3.53;;;;;;;;;;4912742;29;20051;-79
2023/06/15 05:14:49;;;;;;;11.85;4.55;;;;;;;;;;4910054;29;20409;-80
2023/06/15 05:17:14;;;;;;;6.93;4.18;;;;;;;;;;4905971;29;20039;-79
2023/06/15 05:19:40;;;;;;;12.32;4.43;;;;;;;;;;4899952;29;20043;-79
2023/06/15 05:22:06;;;;;;;9.15;4.78;;;;;;;;;;4904237;29;20051;-80
2023/06/15 05:24:35;;;;;;;7.55;4.10;;;;;;;;;;4877248;29;20043;-79
2023/06/15 05:27:02;;;;;;;8.10;4.05;;;;;;;;;;4907598;29;20032;-78
2023/06/15 05:29:28;;;;;;;10.77;4.45;;;;;;;;;;4918897;29;20122;-79
2023/06/15 05:31:59;;;;;;;5.53;3.63;;;;;;;;;;4886920;29;20111;-80
2023/06/15 05:34:26;;;;;;;13.40;4.13;;;;;;;;;;4902716;29;20036;-80
2023/06/15 05:36:52;;;;;;;7.38;3.80;;;;;;;;;;4920351;29;20028;-80
2023/06/15 05:39:20;;;;;;;7.07;3.90;;;;;;;;;;4899884;29;20102;-80
2023/06/15 05:41:46;;;;;;;10.35;4.25;;;;;;;;;;4888004;29;20279;-80
2023/06/15 05:44:12;;;;;;;9.95;4.35;;;;;;;;;;4915512;29;20084;-81
2023/06/15 05:46:39;;;;;;;13.68;4.53;;;;;;;;;;4917157;29;20035;-80
2023/06/15 05:49:05;;;;;;;9.23;3.78;;;;;;;;;;4925021;29;20028;-80
2023/06/15 05:51:31;;;;;;;9.85;3.90;;;;;;;;;;4909904;29;20031;-80
2023/06/15 05:53:56;;;;;;;8.85;4.35;;;;;;;;;;4887494;29;20098;-79
2023/06/15 05:56:22;;;;;;;8.00;3.70;;;;;;;;;;4911935;29;20103;-78
2023/06/15 05:58:47;;;;;;;8.00;4.30;;;;;;;;;;4923438;29;20035;-79
2023/06/15 06:01:13;;;;;;;15.15;4.47;;;;;;;;;;4915202;29;20032;-80
2023/06/15 06:03:40;;;;;;;9.43;4.07;;;;;;;;;;4915480;29;20063;-79
2023/06/15 06:06:05;;;;;;;9.95;4.07;;;;;;;;;;4913799;29;20113;-79
2023/06/15 06:08:31;;;;;;;9.05;4.03;;;;;;;;;;4923909;29;20512;-78
2023/06/15 06:10:57;;;;;;;11.68;4.07;;;;;;;;;;4924299;29;20032;-78
2023/06/15 06:13:37;;;;;;;9.27;4.53;;;;;;;;;;4914848;29;20083;-79
2023/06/15 06:16:02;;;;;;;8.93;4.13;;;;;;;;;;4902709;29;20039;-80
2023/06/15 06:18:28;;;;;;;11.43;4.55;;;;;;;;;;4895119;29;20043;-79
2023/06/15 06:20:54;;;;;;;8.95;4.10;;;;;;;;;;4893765;29;20032;-80
2023/06/15 06:23:20;;;;;;;10.93;3.72;;;;;;;;;;4904202;29;20032;-80
2023/06/15 06:25:45;;;;;;;14.57;4.82;;;;;;;;;;4914316;29;20086;-78
2023/06/15 06:28:11;;;;;;;6.60;3.65;;;;;;;;;;4903605;29;20153;-78
2023/06/15 06:30:38;;;;;;;11.40;4.50;;;;;;;;;;4934943;29;20032;-79
2023/06/15 06:33:04;;;;;;;8.50;4.25;;;;;;;;;;4906502;29;20032;-80
2023/06/15 06:35:29;;;;;;;9.02;4.82;;;;;;;;;;4930870;29;20038;-79
2023/06/15 06:37:55;;;;;;;9.80;4.80;;;;;;;;;;4931568;29;20406;-79
2023/06/15 06:40:21;;;;;;;14.40;5.22;;;;;;;;;;4921979;29;20463;-79
2023/06/15 06:42:46;;;;;;;10.52;4.45;;;;;;;;;;4925365;29;20032;-80
2023/06/15 06:45:12;;;;;;;7.53;4.13;;;;;;;;;;4911462;29;20578;-79
2023/06/15 06:47:37;;;;;;;10.80;4.18;;;;;;;;;;4918785;29;20036;-79
2023/06/15 06:50:05;;;;;;;12.32;4.10;;;;;;;;;;4910930;29;20123;-79
2023/06/15 06:52:30;;;;;;;11.45;4.32;;;;;;;;;;4911358;29;20028;-80
2023/06/15 06:54:56;;;;;;;14.82;4.20;;;;;;;;;;4923920;29;20030;-80
2023/06/15 06:57:21;;;;;;;15.30;4.80;;;;;;;;;;4929563;29;20548;-80
2023/06/15 06:59:47;;;;;;;9.95;4.00;;;;;;;;;;4918817;29;20032;-78
2023/06/15 07:02:16;;;;;;;11.38;3.97;;;;;;;;;;4929432;29;20024;-80
2023/06/15 07:04:42;;;;;;;10.65;4.10;;;;;;;;;;4907037;29;20072;-79
2023/06/15 07:07:07;;;;;;;8.20;4.15;;;;;;;;;;4905481;29;20043;-79
2023/06/15 07:09:33;;;;;;;11.05;5.05;;;;;;;;;;4915450;29;20060;-79
2023/06/15 07:11:58;;;;;;;9.10;4.05;;;;;;;;;;4928602;29;20525;-80
2023/06/15 07:14:24;;;;;;;8.00;4.15;;;;;;;;;;4911296;29;20394;-78
2023/06/15 07:16:50;;;;;;;15.38;4.57;;;;;;;;;;4908401;29;20040;-80
2023/06/15 07:19:16;;;;;;;14.07;4.25;;;;;;;;;;4905015;29;20043;-79
2023/06/15 07:21:41;;;;;;;10.98;3.97;;;;;;;;;;4914420;29;20038;-80
2023/06/15 07:24:07;;;;;;;10.93;4.30;;;;;;;;;;4898898;29;20027;-78
2023/06/15 07:26:32;;;;;;;8.00;3.67;;;;;;;;;;4898415;29;20043;-78
2023/06/15 07:28:58;;;;;;;8.93;4.10;;;;;;;;;;4915394;29;20031;-79
2023/06/15 07:31:23;;;;;;;8.95;3.92;;;;;;;;;;4915654;29;20083;-78
2023/06/15 07:33:49;;;;;;;11.95;4.20;;;;;;;;;;4915864;29;20095;-79
2023/06/15 07:36:15;;;;;;;6.95;4.13;;;;;;;;;;4915808;29;20032;-79
2023/06/15 07:38:41;;;;;;;11.07;4.20;;;;;;;;;;4916022;29;20051;-79
2023/06/15 07:41:06;;;;;;;13.73;3.95;;;;;;;;;;4927346;29;20031;-79
2023/06/15 07:43:32;;;;;;;9.35;3.72;;;;;;;;;;4867796;29;20533;-78
2023/06/15 07:45:58;;;;;;;9.93;3.90;;;;;;;;;;4930967;29;20088;-79
2023/06/15 07:48:23;;;;;;;7.10;3.60;;;;;;;;;;4921747;29;20423;-78
2023/06/15 07:50:49;;;;;;;6.78;3.13;;;;;;;;;;4910506;29;20450;-79
2023/06/15 07:53:15;;;;;;;7.78;3.30;;;;;;;;;;4931235;29;20027;-79
2023/06/15 07:55:40;;;;;;;7.78;3.80;;;;;;;;;;4904554;29;20064;-79
2023/06/15 07:58:06;;;;;;;11.43;4.22;;;;;;;;;;4916836;29;20024;-77
2023/06/15 08:00:31;;;;;;;10.70;3.67;;;;;;;;;;4925487;29;20031;-78
2023/06/15 08:03:00;;;;;;;8.73;3.22;;;;;;;;;;4926138;29;20514;-80
2023/06/15 08:05:25;;;;;;;8.55;3.22;;;;;;;;;;4901426;29;20036;-78
2023/06/15 08:07:51;;;;;;;12.60;3.38;;;;;;;;;;4918029;29;20096;-79
2023/06/15 08:10:17;;;;;;;9.57;3.13;;;;;;;;;;4901433;29;20031;-79
2023/06/15 08:12:43;;;;;;;11.60;3.78;;;;;;;;;;4909995;29;20436;-79
2023/06/15 08:15:09;;;;;;;6.43;2.85;;;;;;;;;;4873390;29;20040;-77
2023/06/15 08:17:35;;;;;;;9.27;2.97;;;;;;;;;;4929656;29;20593;-78
2023/06/15 08:20:05;;;;;;;4.50;2.53;;;;;;;;;;4902439;29;20089;-79
2023/06/15 08:22:31;;;;;;;4.78;2.75;;;;;;;;;;4901985;29;20166;-78
2023/06/15 08:24:56;;;;;;;7.38;3.13;;;;;;;;;;4903277;29;20055;-77
2023/06/15 08:27:21;;;;;;;5.65;2.88;;;;;;;;;;4904719;29;20035;-77
2023/06/15 08:29:48;;;;;;;8.98;3.10;;;;;;;;;;4905626;29;20518;-77
2023/06/15 08:32:13;;;;;;;8.77;3.30;;;;;;;;;;4935731;29;20016;-79
2023/06/15 08:34:42;;;;;;;6.25;3.30;;;;;;;;;;4927822;29;20031;-79
2023/06/15 08:37:09;;;;;;;11.32;2.72;;;;;;;;;;4924480;29;20068;-79
2023/06/15 08:39:34;;;;;;;5.80;2.67;;;;;;;;;;4916363;29;20493;-78
2023/06/15 08:42:02;;;;;;;7.85;3.53;;;;;;;;;;4903660;29;20034;-80
2023/06/15 08:44:30;;;;;;;10.70;3.63;;;;;;;;;;4912023;29;20032;-78
2023/06/15 08:46:56;;;;;;;6.82;3.30;;;;;;;;;;4928756;29;20036;-80
2023/06/15 08:49:23;;;;;;;8.07;3.15;;;;;;;;;;4934790;29;20445;-77
2023/06/15 08:51:49;;;;;;;8.93;3.08;;;;;;;;;;4903377;29;20488;-78
2023/06/15 08:54:18;;;;;;;3.95;2.53;;;;;;;;;;4931147;29;20059;-78
2023/06/15 08:56:43;;;;;;;5.57;2.40;;;;;;;;;;4909350;29;20127;-79
2023/06/15 08:59:09;;;;;;;9.00;2.40;;;;;;;;;;4923894;29;20056;-78
2023/06/15 09:01:40;;;;;;;6.28;2.65;;;;;;;;;;4932005;29;20488;-77
2023/06/15 09:04:06;;;;;;;9.55;2.72;;;;;;;;;;4921367;29;20032;-79
2023/06/15 09:06:32;;;;;;;6.68;3.03;;;;;;;;;;4928610;29;20038;-79
2023/06/15 09:08:57;;;;;;;10.73;3.28;;;;;;;;;;4911197;29;20032;-78
2023/06/15 09:11:23;;;;;;;5.28;2.88;;;;;;;;;;4921848;29;20028;-78
2023/06/15 09:13:50;;;;;;;7.28;3.20;;;;;;;;;;4915945;29;20421;-79
2023/06/15 09:16:15;;;;;;;7.22;3.45;;;;;;;;;;4905262;29;20023;-77
2023/06/15 09:18:41;;;;;;;10.82;3.05;;;;;;;;;;4927278;29;20164;-78
2023/06/15 09:21:10;;;;;;;9.98;3.58;;;;;;;;;;4911715;29;20485;-79
2023/06/15 09:23:35;;;;;;;;;;;;;;;;;;4903116;29;20036;-78
2023/06/15 09:26:01;;;;;;;5.70;2.92;;;;;;;;;;4932119;29;19926;-79
2023/06/15 09:28:27;;;;;;;8.07;3.13;;;;;;;;;;4923600;29;20405;-78
2023/06/15 09:30:55;;;;;;;10.75;3.45;;;;;;;;;;4908562;29;20020;-78
2023/06/15 09:33:21;;;;;;;10.60;3.80;;;;;;;;;;4930838;29;20095;-79
2023/06/15 09:35:53;;;;;;;6.45;3.10;;;;;;;;;;4903139;29;20442;-78
2023/06/15 09:38:18;;;;;;;10.85;2.85;;;;;;;;;;4913278;29;20028;-78
2023/06/15 09:40:44;;;;;;;7.13;3.08;;;;;;;;;;4925975;29;20034;-79
2023/06/15 09:43:12;;;;;;;7.13;3.28;;;;;;;;;;4906387;29;20024;-79
2023/06/15 09:45:48;;;;;;;13.38;3.30;;;;;;;;;;4913340;29;20141;-79
2023/06/15 09:48:13;;;;;;;7.65;3.58;;;;;;;;;;4935250;29;20055;-79
2023/06/15 09:50:39;;;;;;;10.30;2.90;;;;;;;;;;4881447;29;20044;-80
2023/06/15 09:53:05;;;;;;;7.22;2.78;;;;;;;;;;4927287;29;20036;-79
2023/06/15 09:55:30;;;;;;;9.50;2.88;;;;;;;;;;4916206;29;20071;-77
2023/06/15 09:57:56;;;;;;;7.93;3.03;;;;;;;;;;4919283;29;20190;-77
2023/06/15 10:00:22;;;;;;;5.05;2.72;;;;;;;;;;4929248;29;20031;-79
2023/06/15 10:02:51;;;;;;;8.43;3.20;;;;;;;;;;4925761;29;20032;-79
2023/06/15 10:05:19;;;;;;;7.43;3.17;;;;;;;;;;4921914;29;20521;-79
2023/06/15 10:07:46;;;;;;;6.78;3.03;;;;;;;;;;4914897;29;20127;-80
2023/06/15 10:10:13;;;;;;;5.75;2.80;;;;;;;;;;4904324;29;20031;-78
2023/06/15 10:12:41;;;;;;;6.00;2.80;;;;;;;;;;4909885;29;20139;-79
2023/06/15 10:15:12;;;;;;;11.20;3.35;;;;;;;;;;4928925;29;20078;-79
2023/06/15 10:17:40;;;;;;;9.25;2.92;;;;;;;;;;4903460;29;20037;-79
2023/06/15 10:20:17;;;;;;;6.10;3.47;;;;;;;;;;4911447;29;20033;-79
2023/06/15 10:22:50;;;;;;;7.75;3.15;;;;;;;;;;4889723;29;20589;-79
2023/06/15 10:25:16;;;;;;;6.18;2.63;;;;;;;;;;4927596;29;20028;-78
2023/06/15 10:27:42;;;;;;;7.97;2.83;;;;;;;;;;4918747;29;20036;-78
2023/06/15 10:30:27;;;;;;;9.60;2.83;;;;;;;;;;4930413;29;20482;-78
2023/06/15 10:32:52;;;;;;;10.90;3.10;;;;;;;;;;4926076;29;20087;-79
2023/06/15 10:35:41;;;;;;;5.47;3.03;;;;;;;;;;4900743;29;20071;-79
2023/06/15 10:38:17;;;;;;;5.47;2.97;;;;;;;;;;4903230;29;20033;-78
2023/06/15 10:40:47;;;;;;;7.05;3.00;;;;;;;;;;4908535;29;20036;-78
2023/06/15 10:43:19;;;;;;;6.18;2.80;;;;;;;;;;4897040;29;20678;-78
2023/06/15 10:45:46;;;;;;;9.57;2.97;;;;;;;;;;4940039;23;20070;-84
2023/06/15 10:48:26;;;;;;;7.38;2.75;;;;;;;;;;4916734;29;20024;-86
2023/06/15 10:51:00;;;;;;;8.15;2.63;;;;;;;;;;4897178;29;20031;-85
2023/06/15 10:53:27;;;;;;;4.00;2.55;;;;;;;;;;4937812;29;20476;-85
2023/06/15 10:55:56;;;;;;;9.75;3.03;;;;;;;;;;4941617;29;20027;-85
2023/06/15 10:58:22;;;;;;;6.25;2.50;;;;;;;;;;4946731;29;20024;-85
2023/06/15 11:01:05;;;;;;;5.15;2.70;;;;;;;;;;4912019;29;20027;-84
2023/06/15 11:03:31;;;;;;;7.95;3.35;;;;;;;;;;4916705;29;20028;-85
2023/06/15 11:06:06;;;;;;;7.45;2.70;;;;;;;;;;4945098;29;20026;-84
2023/06/15 11:08:40;;;;;;;10.30;4.40;;;;;;;;;;4943071;29;20084;-83
2023/06/15 11:11:08;;;;;;;5.40;2.80;;;;;;;;;;4935120;29;20028;-84
2023/06/15 11:13:34;;;;;;;9.60;3.20;;;;;;;;;;4940689;29;20035;-84
2023/06/15 11:16:09;;;;;;;7.15;2.72;;;;;;;;;;4924557;29;20034;-85
2023/06/15 11:18:36;;;;;;;4.68;2.53;;;;;;;;;;4898828;29;20108;-85
2023/06/15 11:21:02;;;;;;;5.93;2.75;;;;;;;;;;4947178;29;20031;-85
2023/06/15 11:23:29;;;;;;;6.47;2.60;;;;;;;;;;4924149;29;20038;-85
2023/06/15 11:25:55;;;;;;;9.05;3.03;;;;;;;;;;4939324;29;20039;-84
2023/06/15 11:28:24;;;;;;;5.82;3.63;;;;;;;;;;4930419;29;20035;-85
2023/06/15 11:31:06;;;;;;;6.40;2.80;;;;;;;;;;4959301;29;20023;-84
2023/06/15 11:37:55;;;;;;;6.05;2.35;;;;;;;;;;4925224;29;20043;-85
2023/06/15 11:40:27;;;;;;;7.13;2.92;;;;;;;;;;4934020;29;20031;-84
2023/06/15 11:45:50;;;;;;;4.95;2.67;;;;;;;;;;4926727;29;20032;-84
2023/06/15 11:48:21;;;;;;;5.03;2.65;;;;;;;;;;4921747;29;20024;-84
2023/06/15 11:50:50;;;;;;;8.13;3.22;;;;;;;;;;4922943;29;20482;-84
2023/06/15 11:53:19;;;;;;;6.07;2.70;;;;;;;;;;4934565;29;20042;-86
2023/06/15 11:56:14;;;;;;;6.80;2.63;;;;;;;;;;4911270;29;20456;-84
2023/06/15 11:58:43;;;;;;;7.23;3.30;;;;;;;;;;4912332;29;20498;-84
2023/06/15 12:01:12;;;;;;;5.70;2.30;;;;;;;;;;4908477;29;20439;-85
2023/06/15 12:03:41;;;;;;;11.00;2.95;;;;;;;;;;4901982;29;20027;-85
2023/06/15 12:06:07;;;;;;;7.78;2.80;;;;;;;;;;4925619;29;20039;-85
2023/06/15 12:08:33;;;;;;;7.97;2.78;;;;;;;;;;4934071;29;20662;-85
2023/06/15 12:10:59;;;;;;;7.55;2.78;;;;;;;;;;4951861;29;20051;-85
2023/06/15 12:13:25;;;;;;;8.73;2.80;;;;;;;;;;4920862;29;20492;-85
2023/06/15 12:15:51;;;;;;;9.65;2.75;;;;;;;;;;4937474;29;20042;-85
2023/06/15 12:18:19;;;;;;;5.57;2.72;;;;;;;;;;4927755;29;20029;-85
2023/06/15 12:20:46;;;;;;;9.18;2.90;;;;;;;;;;4948421;29;20055;-83
2023/06/15 12:23:24;;;;;;;11.77;3.05;;;;;;;;;;4934913;29;20101;-85
2023/06/15 12:25:52;;;;;;;6.45;2.97;;;;;;;;;;4909151;29;20112;-83
2023/06/15 12:28:19;;;;;;;4.55;2.67;;;;;;;;;;4902176;29;20032;-85
2023/06/15 12:30:47;;;;;;;8.18;3.47;;;;;;;;;;4902779;29;20122;-84
2023/06/15 12:33:26;;;;;;;6.68;2.60;;;;;;;;;;4891429;29;20056;-84
2023/06/15 12:35:52;;;;;;;5.50;2.60;;;;;;;;;;4936008;29;20041;-85
2023/06/15 12:38:19;;;;;;;4.32;2.58;;;;;;;;;;4938866;29;20121;-86
2023/06/15 12:40:45;;;;;;;8.50;3.20;;;;;;;;;;4921525;29;20040;-85
2023/06/15 12:43:11;;;;;;;6.40;2.92;;;;;;;;;;4925500;29;20089;-84
2023/06/15 12:45:36;;;;;;;5.90;2.95;;;;;;;;;;4935104;29;20048;-84
2023/06/15 12:48:02;;;;;;;6.60;2.55;;;;;;;;;;4936247;29;20051;-83
2023/06/15 12:50:29;;;;;;;4.93;2.72;;;;;;;;;;4927074;29;20038;-86
2023/06/15 12:52:58;;;;;;;5.78;3.00;;;;;;;;;;4928899;29;20024;-85
2023/06/15 12:55:25;;;;;;;6.57;2.90;;;;;;;;;;4951248;28;20031;-85
2023/06/15 12:57:50;;;;;;;7.38;2.83;;;;;;;;;;4906743;29;20508;-86
2023/06/15 13:00:17;;;;;;;6.60;2.90;;;;;;;;;;4933354;29;20040;-85
2023/06/15 13:02:43;;;;;;;7.80;3.22;;;;;;;;;;4928709;29;20035;-85
2023/06/15 13:05:09;;;;;;;4.93;2.88;;;;;;;;;;4910906;29;20035;-84
2023/06/15 13:07:36;;;;;;;4.43;2.70;;;;;;;;;;4922404;29;20102;-85
2023/06/15 13:10:02;;;;;;;5.00;2.50;;;;;;;;;;4876728;29;20069;-85
2023/06/15 13:12:28;;;;;;;7.53;2.90;;;;;;;;;;4948942;29;20464;-85
2023/06/15 13:14:54;;;;;;;5.65;2.42;;;;;;;;;;4930429;29;20035;-85
2023/06/15 13:17:19;;;;;;;9.02;3.15;;;;;;;;;;4925760;29;20461;-85
2023/06/15 13:19:45;;;;;;;5.28;2.45;;;;;;;;;;4920103;29;20138;-85
2023/06/15 13:22:11;;;;;;;4.78;2.33;;;;;;;;;;4942061;29;20027;-85
2023/06/15 13:24:37;;;;;;;3.83;2.53;;;;;;;;;;4911450;29;20040;-85
2023/06/15 13:27:04;;;;;;;6.35;2.75;;;;;;;;;;4947204;29;20027;-85
2023/06/15 13:29:31;;;;;;;6.65;2.75;;;;;;;;;;4926642;29;20031;-85
2023/06/15 13:31:57;;;;;;;6.22;2.90;;;;;;;;;;4939333;29;20594;-84
2023/06/15 13:34:22;;;;;;;6.95;2.78;;;;;;;;;;4943336;29;20077;-85
2023/06/15 13:36:48;;;;;;;6.88;2.33;;;;;;;;;;4935086;29;20043;-85
2023/06/15 13:39:14;;;;;;;7.25;2.30;;;;;;;;;;4950229;29;20015;-84
2023/06/15 13:41:39;;;;;;;8.05;2.60;;;;;;;;;;4955799;29;20043;-83
2023/06/15 13:44:05;;;;;;;12.52;3.90;;;;;;;;;;4961526;29;20050;-83
2023/06/15 13:46:31;;;;;;;5.45;2.90;;;;;;;;;;4953728;29;20063;-84
2023/06/15 13:48:57;;;;;;;5.60;2.63;;;;;;;;;;4956773;29;20051;-82
2023/06/15 13:51:22;;;;;;;8.15;2.70;;;;;;;;;;4961418;29;20031;-82
2023/06/15 13:53:48;;;;;;;6.40;2.90;;;;;;;;;;4951222;29;20508;-85
2023/06/15 13:56:17;;;;;;;5.25;3.17;;;;;;;;;;4938434;29;20046;-84
2023/06/15 13:58:42;;;;;;;5.03;3.00;;;;;;;;;;4957977;29;20039;-84
2023/06/15 14:01:08;;;;;;;5.13;3.17;;;;;;;;;;4942618;29;20027;-85
2023/06/15 14:03:33;;;;;;;6.18;2.70;;;;;;;;;;4933601;29;20482;-85
2023/06/15 14:05:59;;;;;;;5.75;3.00;;;;;;;;;;4949221;29;20066;-83
2023/06/15 14:08:25;;;;;;;4.22;2.83;;;;;;;;;;4948278;29;20043;-85
2023/06/15 14:10:50;;;;;;;4.43;2.67;;;;;;;;;;4973376;29;20031;-84
2023/06/15 14:13:18;;;;;;;6.00;2.75;;;;;;;;;;4939775;29;20035;-86
2023/06/15 14:15:43;;;;;;;6.10;2.55;;;;;;;;;;4925157;29;20096;-86
2023/06/15 14:18:09;;;;;;;6.97;3.08;;;;;;;;;;4924697;29;20118;-86
2023/06/15 14:20:34;;;;;;;5.78;2.50;;;;;;;;;;4927764;29;20395;-85
2023/06/15 14:23:00;;;;;;;7.93;2.50;;;;;;;;;;4928154;29;20078;-85
2023/06/15 14:25:26;;;;;;;6.97;2.60;;;;;;;;;;4929344;28;20062;-86
2023/06/15 14:27:51;;;;;;;5.60;2.90;;;;;;;;;;4923439;29;20031;-85
2023/06/15 14:30:17;;;;;;;5.95;2.70;;;;;;;;;;4936454;29;20512;-86
2023/06/15 14:32:42;;;;;;;7.00;3.25;;;;;;;;;;4937600;29;20031;-85
2023/06/15 14:35:08;;;;;;;4.28;2.58;;;;;;;;;;4928442;29;20062;-85
2023/06/15 14:37:34;;;;;;;5.25;2.90;;;;;;;;;;4945959;29;20027;-84
2023/06/15 14:40:01;;;;;;;5.25;2.28;;;;;;;;;;4931443;29;20074;-84
2023/06/15 14:42:27;;;;;;;4.43;2.63;;;;;;;;;;4891109;29;20042;-86
2023/06/15 14:44:54;;;;;;;5.60;2.45;;;;;;;;;;4931304;29;20035;-87
2023/06/15 14:47:19;;;;;;;8.32;2.75;;;;;;;;;;4911298;29;20031;-86
2023/06/15 14:49:45;;;;;;;6.38;2.70;;;;;;;;;;4888836;29;20141;-88
2023/06/15 14:52:11;;;;;;;6.85;2.78;;;;;;;;;;4948150;29;20031;-86
2023/06/15 14:54:41;;;;;;;6.75;2.50;;;;;;;;;;4921435;29;20038;-85